Time;durP1;ratioP1;P1;durP2;ratioP2;P2;SDS_P1;SDS_P2;PMS_P1;PMS_P2;Temp;Humidity;BMP_temperature;BMP_pressure;BME280_temperature;BME280_humidity;BME280_pressure;Samples;Min_cycle;Max_cycle;Signal;HPM_P1;HPM_P2
2023/04/16 14:56:20;;;;;;;31.20;23.05;;;;;;;;;;7320159;19;20039;-78
2023/04/16 22:02:41;;;;;;;45.53;33.63;;;;;;;;;;7319601;19;20035;-78
2023/04/16 22:05:07;;;;;;;49.47;35.40;;;;;;;;;;7352455;19;20093;-78
2023/04/16 22:07:32;;;;;;;47.67;33.53;;;;;;;;;;7361256;19;20095;-78
2023/04/16 22:09:57;;;;;;;44.88;32.03;;;;;;;;;;7358554;19;20002;-78
2023/04/16 22:12:22;;;;;;;48.83;31.40;;;;;;;;;;7366804;19;20010;-78
2023/04/16 22:14:47;;;;;;;47.70;32.35;;;;;;;;;;7365274;19;19998;-78
2023/04/16 22:17:13;;;;;;;46.70;31.10;;;;;;;;;;7361607;19;20001;-79
2023/04/16 22:19:39;;;;;;;46.90;32.50;;;;;;;;;;7357975;19;20435;-78
2023/04/16 22:22:04;;;;;;;48.15;32.90;;;;;;;;;;7360974;19;20009;-79
2023/04/16 22:24:29;;;;;;;48.80;32.45;;;;;;;;;;7366024;19;20717;-78
2023/04/16 22:26:55;;;;;;;43.80;31.17;;;;;;;;;;7364259;19;20800;-78
2023/04/16 22:29:20;;;;;;;52.70;35.63;;;;;;;;;;7359813;19;19998;-79
2023/04/16 22:31:46;;;;;;;46.83;33.43;;;;;;;;;;7360292;19;20002;-79
2023/04/16 22:34:11;;;;;;;50.35;34.15;;;;;;;;;;7360985;19;20250;-79
2023/04/16 22:36:36;;;;;;;51.35;32.83;;;;;;;;;;7358677;19;20205;-79
2023/04/16 22:39:07;;;;;;;48.60;33.77;;;;;;;;;;7359102;19;19999;-78
2023/04/16 22:41:32;;;;;;;46.83;33.67;;;;;;;;;;7360819;19;20252;-79
2023/04/16 22:43:57;;;;;;;48.85;33.33;;;;;;;;;;7364258;19;20372;-79
2023/04/16 22:46:24;;;;;;;50.42;33.55;;;;;;;;;;7364676;19;20011;-78
2023/04/16 22:48:50;;;;;;;47.80;33.70;;;;;;;;;;7363361;19;20420;-79
2023/04/16 22:51:15;;;;;;;52.63;34.45;;;;;;;;;;7355458;19;20099;-78
2023/04/16 22:53:41;;;;;;;49.80;33.70;;;;;;;;;;7364499;19;20075;-79
2023/04/16 22:56:06;;;;;;;49.65;33.30;;;;;;;;;;7363679;19;20006;-78
2023/04/16 22:58:31;;;;;;;52.53;33.88;;;;;;;;;;7365085;19;20022;-79
2023/04/16 23:00:58;;;;;;;50.60;33.78;;;;;;;;;;7359577;19;20074;-78
2023/04/16 23:03:23;;;;;;;47.75;32.83;;;;;;;;;;7361757;19;20057;-79
2023/04/16 23:05:48;;;;;;;45.13;32.63;;;;;;;;;;7369487;19;20030;-79
2023/04/16 23:08:13;;;;;;;44.37;31.27;;;;;;;;;;7367049;19;20898;-79
2023/04/16 23:10:38;;;;;;;48.50;33.33;;;;;;;;;;7372635;19;20252;-79
2023/04/16 23:13:03;;;;;;;49.37;32.47;;;;;;;;;;7368604;19;20244;-78
2023/04/16 23:15:29;;;;;;;47.60;34.47;;;;;;;;;;7371509;19;20247;-79
2023/04/16 23:17:54;;;;;;;53.83;34.47;;;;;;;;;;7371473;19;20266;-78
2023/04/16 23:20:19;;;;;;;45.67;32.47;;;;;;;;;;7369384;19;20006;-78
2023/04/16 23:22:45;;;;;;;47.10;33.43;;;;;;;;;;7368430;19;20327;-78
2023/04/16 23:25:10;;;;;;;53.78;35.22;;;;;;;;;;7369734;19;21040;-78
2023/04/16 23:27:36;;;;;;;46.90;33.58;;;;;;;;;;7373418;19;20022;-77
2023/04/16 23:30:02;;;;;;;48.83;33.17;;;;;;;;;;7368257;19;20471;-78
2023/04/16 23:32:27;;;;;;;48.80;33.47;;;;;;;;;;7373396;19;20313;-79
2023/04/16 23:34:52;;;;;;;53.70;35.85;;;;;;;;;;7368738;19;20021;-78
2023/04/16 23:37:17;;;;;;;50.35;35.03;;;;;;;;;;7367116;19;20010;-79
2023/04/16 23:39:43;;;;;;;54.50;35.57;;;;;;;;;;7371652;19;20413;-78
2023/04/16 23:42:08;;;;;;;48.63;34.13;;;;;;;;;;7370095;19;20648;-78
2023/04/16 23:44:33;;;;;;;54.90;36.80;;;;;;;;;;7370704;19;20461;-78
2023/04/16 23:46:58;;;;;;;52.42;34.90;;;;;;;;;;7369042;19;20272;-79
2023/04/16 23:49:23;;;;;;;56.08;38.42;;;;;;;;;;7369892;19;20058;-78
2023/04/16 23:51:49;;;;;;;59.72;39.05;;;;;;;;;;7369178;19;20070;-79
2023/04/16 23:54:14;;;;;;;59.53;39.85;;;;;;;;;;7368671;19;20002;-77
2023/04/16 23:56:40;;;;;;;58.17;39.70;;;;;;;;;;7368905;19;20087;-79
2023/04/16 23:59:05;;;;;;;61.40;39.63;;;;;;;;;;7366164;19;20002;-78
